sensor_id;sensor_type;location;lat;lon;timestamp;P1;durP1;ratioP1;P2;durP2;ratioP2
946;SDS011;460;48.734;9.152;2023-05-23T00:01:44;10.47;;;7.03;;
946;SDS011;460;48.734;9.152;2023-05-23T00:04:11;9.10;;;5.77;;
946;SDS011;460;48.734;9.152;2023-05-23T00:06:41;9.03;;;6.40;;
946;SDS011;460;48.734;9.152;2023-05-23T00:09:10;12.87;;;7.60;;
946;SDS011;460;48.734;9.152;2023-05-23T00:11:37;9.13;;;7.10;;
946;SDS011;460;48.734;9.152;2023-05-23T00:14:09;12.70;;;7.70;;
946;SDS011;460;48.734;9.152;2023-05-23T00:16:38;11.80;;;7.07;;
946;SDS011;460;48.734;9.152;2023-05-23T00:19:06;13.27;;;8.97;;
946;SDS011;460;48.734;9.152;2023-05-23T00:21:34;14.27;;;9.47;;
946;SDS011;460;48.734;9.152;2023-05-23T00:24:00;14.07;;;8.97;;
946;SDS011;460;48.734;9.152;2023-05-23T00:26:28;19.33;;;10.50;;
946;SDS011;460;48.734;9.152;2023-05-23T00:28:56;12.50;;;8.50;;
946;SDS011;460;48.734;9.152;2023-05-23T00:31:23;11.37;;;9.37;;
946;SDS011;460;48.734;9.152;2023-05-23T00:33:51;16.17;;;10.30;;
946;SDS011;460;48.734;9.152;2023-05-23T00:36:18;13.30;;;9.47;;
946;SDS011;460;48.734;9.152;2023-05-23T00:38:46;15.97;;;9.37;;
946;SDS011;460;48.734;9.152;2023-05-23T00:41:13;16.60;;;11.60;;
946;SDS011;460;48.734;9.152;2023-05-23T00:43:40;18.90;;;11.33;;
946;SDS011;460;48.734;9.152;2023-05-23T00:46:06;17.63;;;11.37;;
946;SDS011;460;48.734;9.152;2023-05-23T00:48:34;15.73;;;10.10;;
946;SDS011;460;48.734;9.152;2023-05-23T00:51:04;17.17;;;12.50;;
946;SDS011;460;48.734;9.152;2023-05-23T00:53:30;15.47;;;10.83;;
946;SDS011;460;48.734;9.152;2023-05-23T00:55:58;19.33;;;12.47;;
946;SDS011;460;48.734;9.152;2023-05-23T00:58:25;18.40;;;12.50;;
946;SDS011;460;48.734;9.152;2023-05-23T01:00:52;17.90;;;13.37;;
946;SDS011;460;48.734;9.152;2023-05-23T01:03:19;17.50;;;11.20;;
946;SDS011;460;48.734;9.152;2023-05-23T01:05:47;17.43;;;10.03;;
946;SDS011;460;48.734;9.152;2023-05-23T01:08:15;22.03;;;13.00;;
946;SDS011;460;48.734;9.152;2023-05-23T01:10:42;16.77;;;11.80;;
946;SDS011;460;48.734;9.152;2023-05-23T01:13:12;18.23;;;11.40;;
946;SDS011;460;48.734;9.152;2023-05-23T01:15:49;16.70;;;11.20;;
946;SDS011;460;48.734;9.152;2023-05-23T01:18:23;20.40;;;12.13;;
946;SDS011;460;48.734;9.152;2023-05-23T01:20:58;17.60;;;12.07;;
946;SDS011;460;48.734;9.152;2023-05-23T01:26:40;16.70;;;11.40;;
946;SDS011;460;48.734;9.152;2023-05-23T01:29:25;23.87;;;11.60;;
946;SDS011;460;48.734;9.152;2023-05-23T01:31:55;16.10;;;9.80;;
946;SDS011;460;48.734;9.152;2023-05-23T01:34:24;23.77;;;11.47;;
946;SDS011;460;48.734;9.152;2023-05-23T01:36:53;22.17;;;11.37;;
946;SDS011;460;48.734;9.152;2023-05-23T01:39:20;15.67;;;10.53;;
946;SDS011;460;48.734;9.152;2023-05-23T01:41:47;17.20;;;9.23;;
946;SDS011;460;48.734;9.152;2023-05-23T01:44:15;21.23;;;12.33;;
946;SDS011;460;48.734;9.152;2023-05-23T01:46:44;14.73;;;10.03;;
946;SDS011;460;48.734;9.152;2023-05-23T01:49:13;17.77;;;10.73;;
946;SDS011;460;48.734;9.152;2023-05-23T01:51:42;17.73;;;11.47;;
946;SDS011;460;48.734;9.152;2023-05-23T01:54:10;19.23;;;11.10;;
946;SDS011;460;48.734;9.152;2023-05-23T01:56:41;17.20;;;11.50;;
946;SDS011;460;48.734;9.152;2023-05-23T01:59:09;21.83;;;11.10;;
946;SDS011;460;48.734;9.152;2023-05-23T02:01:38;18.00;;;11.57;;
946;SDS011;460;48.734;9.152;2023-05-23T02:04:06;15.63;;;12.10;;
946;SDS011;460;48.734;9.152;2023-05-23T02:06:33;22.70;;;13.27;;
946;SDS011;460;48.734;9.152;2023-05-23T02:09:01;17.10;;;12.43;;
946;SDS011;460;48.734;9.152;2023-05-23T02:11:28;17.53;;;12.23;;
946;SDS011;460;48.734;9.152;2023-05-23T02:13:55;19.90;;;11.70;;
946;SDS011;460;48.734;9.152;2023-05-23T02:16:23;13.80;;;11.40;;
946;SDS011;460;48.734;9.152;2023-05-23T02:18:51;18.50;;;10.63;;
946;SDS011;460;48.734;9.152;2023-05-23T02:21:21;19.07;;;11.57;;
946;SDS011;460;48.734;9.152;2023-05-23T02:23:48;20.73;;;12.10;;
946;SDS011;460;48.734;9.152;2023-05-23T02:26:15;23.20;;;13.67;;
946;SDS011;460;48.734;9.152;2023-05-23T02:28:42;24.20;;;12.83;;
946;SDS011;460;48.734;9.152;2023-05-23T02:31:09;20.70;;;13.20;;
946;SDS011;460;48.734;9.152;2023-05-23T02:33:37;19.10;;;11.13;;
946;SDS011;460;48.734;9.152;2023-05-23T02:36:04;20.73;;;12.43;;
946;SDS011;460;48.734;9.152;2023-05-23T02:38:33;20.30;;;12.23;;
946;SDS011;460;48.734;9.152;2023-05-23T02:41:01;21.87;;;13.37;;
946;SDS011;460;48.734;9.152;2023-05-23T02:43:31;21.77;;;12.60;;
946;SDS011;460;48.734;9.152;2023-05-23T02:45:57;18.20;;;12.20;;
946;SDS011;460;48.734;9.152;2023-05-23T02:48:27;17.30;;;11.60;;
946;SDS011;460;48.734;9.152;2023-05-23T02:50:54;18.10;;;12.50;;
946;SDS011;460;48.734;9.152;2023-05-23T02:53:21;23.13;;;11.63;;
946;SDS011;460;48.734;9.152;2023-05-23T02:55:50;23.47;;;16.00;;
946;SDS011;460;48.734;9.152;2023-05-23T02:58:17;16.80;;;12.33;;
946;SDS011;460;48.734;9.152;2023-05-23T03:00:45;17.90;;;11.80;;
946;SDS011;460;48.734;9.152;2023-05-23T03:03:13;21.40;;;13.70;;
946;SDS011;460;48.734;9.152;2023-05-23T03:05:41;25.53;;;13.00;;
946;SDS011;460;48.734;9.152;2023-05-23T03:08:09;23.47;;;12.90;;
946;SDS011;460;48.734;9.152;2023-05-23T03:10:37;16.63;;;10.17;;
946;SDS011;460;48.734;9.152;2023-05-23T03:13:06;20.63;;;13.97;;
946;SDS011;460;48.734;9.152;2023-05-23T03:15:33;22.93;;;13.20;;
946;SDS011;460;48.734;9.152;2023-05-23T03:18:01;17.00;;;11.00;;
946;SDS011;460;48.734;9.152;2023-05-23T03:20:28;23.27;;;13.20;;
946;SDS011;460;48.734;9.152;2023-05-23T03:22:55;18.67;;;12.87;;
946;SDS011;460;48.734;9.152;2023-05-23T03:25:23;23.20;;;14.07;;
946;SDS011;460;48.734;9.152;2023-05-23T03:27:51;28.00;;;13.60;;
946;SDS011;460;48.734;9.152;2023-05-23T03:30:19;20.30;;;13.73;;
946;SDS011;460;48.734;9.152;2023-05-23T03:32:48;21.60;;;12.67;;
946;SDS011;460;48.734;9.152;2023-05-23T03:35:15;20.50;;;13.87;;
946;SDS011;460;48.734;9.152;2023-05-23T03:37:42;22.33;;;13.50;;
946;SDS011;460;48.734;9.152;2023-05-23T03:40:09;18.27;;;13.50;;
946;SDS011;460;48.734;9.152;2023-05-23T03:42:37;22.23;;;12.40;;
946;SDS011;460;48.734;9.152;2023-05-23T03:45:05;21.57;;;13.23;;
946;SDS011;460;48.734;9.152;2023-05-23T03:47:33;21.13;;;12.43;;
946;SDS011;460;48.734;9.152;2023-05-23T03:50:00;22.67;;;14.90;;
946;SDS011;460;48.734;9.152;2023-05-23T03:52:27;19.60;;;12.70;;
946;SDS011;460;48.734;9.152;2023-05-23T03:54:54;21.03;;;12.90;;
946;SDS011;460;48.734;9.152;2023-05-23T03:57:21;19.47;;;12.87;;
946;SDS011;460;48.734;9.152;2023-05-23T03:59:48;27.17;;;13.53;;
946;SDS011;460;48.734;9.152;2023-05-23T04:02:15;20.90;;;12.80;;
946;SDS011;460;48.734;9.152;2023-05-23T04:04:44;24.13;;;13.70;;
946;SDS011;460;48.734;9.152;2023-05-23T04:07:10;23.17;;;14.60;;
946;SDS011;460;48.734;9.152;2023-05-23T04:09:38;18.93;;;12.40;;
946;SDS011;460;48.734;9.152;2023-05-23T04:12:05;15.20;;;10.70;;
946;SDS011;460;48.734;9.152;2023-05-23T04:14:33;23.70;;;14.03;;
946;SDS011;460;48.734;9.152;2023-05-23T04:17:00;23.43;;;13.97;;
946;SDS011;460;48.734;9.152;2023-05-23T04:19:27;19.67;;;11.57;;
946;SDS011;460;48.734;9.152;2023-05-23T04:21:55;22.83;;;13.07;;
946;SDS011;460;48.734;9.152;2023-05-23T04:24:22;21.60;;;12.30;;
946;SDS011;460;48.734;9.152;2023-05-23T04:26:48;25.77;;;11.77;;
946;SDS011;460;48.734;9.152;2023-05-23T04:29:15;18.30;;;12.10;;
946;SDS011;460;48.734;9.152;2023-05-23T04:31:42;16.77;;;10.87;;
946;SDS011;460;48.734;9.152;2023-05-23T04:34:10;22.23;;;11.97;;
946;SDS011;460;48.734;9.152;2023-05-23T04:36:36;17.37;;;12.07;;
946;SDS011;460;48.734;9.152;2023-05-23T04:39:05;20.87;;;13.87;;
946;SDS011;460;48.734;9.152;2023-05-23T04:41:32;19.67;;;12.80;;
946;SDS011;460;48.734;9.152;2023-05-23T04:44:00;23.47;;;14.47;;
946;SDS011;460;48.734;9.152;2023-05-23T04:46:27;13.90;;;10.30;;
946;SDS011;460;48.734;9.152;2023-05-23T04:48:54;19.80;;;11.40;;
946;SDS011;460;48.734;9.152;2023-05-23T04:51:22;16.93;;;11.67;;
946;SDS011;460;48.734;9.152;2023-05-23T04:53:49;13.43;;;11.27;;
946;SDS011;460;48.734;9.152;2023-05-23T04:56:18;19.80;;;11.97;;
946;SDS011;460;48.734;9.152;2023-05-23T04:58:46;19.10;;;14.20;;
946;SDS011;460;48.734;9.152;2023-05-23T05:01:13;17.27;;;12.40;;
946;SDS011;460;48.734;9.152;2023-05-23T05:03:40;17.93;;;11.40;;
946;SDS011;460;48.734;9.152;2023-05-23T05:06:07;17.30;;;12.00;;
946;SDS011;460;48.734;9.152;2023-05-23T05:08:33;20.57;;;12.80;;
946;SDS011;460;48.734;9.152;2023-05-23T05:11:01;16.37;;;10.63;;
946;SDS011;460;48.734;9.152;2023-05-23T05:13:29;14.50;;;11.40;;
946;SDS011;460;48.734;9.152;2023-05-23T05:15:56;19.00;;;11.67;;
946;SDS011;460;48.734;9.152;2023-05-23T05:18:23;15.87;;;11.07;;
946;SDS011;460;48.734;9.152;2023-05-23T05:20:51;20.67;;;11.60;;
946;SDS011;460;48.734;9.152;2023-05-23T05:23:18;18.20;;;11.47;;
946;SDS011;460;48.734;9.152;2023-05-23T05:25:45;17.90;;;10.87;;
946;SDS011;460;48.734;9.152;2023-05-23T05:28:11;20.10;;;12.60;;
946;SDS011;460;48.734;9.152;2023-05-23T05:30:40;16.40;;;12.37;;
946;SDS011;460;48.734;9.152;2023-05-23T05:33:06;16.27;;;10.63;;
946;SDS011;460;48.734;9.152;2023-05-23T05:35:34;21.70;;;12.20;;
946;SDS011;460;48.734;9.152;2023-05-23T05:38:02;17.77;;;12.33;;
946;SDS011;460;48.734;9.152;2023-05-23T05:40:29;19.37;;;11.10;;
946;SDS011;460;48.734;9.152;2023-05-23T05:42:56;19.03;;;12.00;;
946;SDS011;460;48.734;9.152;2023-05-23T05:45:23;18.80;;;9.80;;
946;SDS011;460;48.734;9.152;2023-05-23T05:47:51;24.53;;;13.00;;
946;SDS011;460;48.734;9.152;2023-05-23T05:50:18;20.07;;;13.40;;
946;SDS011;460;48.734;9.152;2023-05-23T05:52:45;19.97;;;12.10;;
946;SDS011;460;48.734;9.152;2023-05-23T05:55:12;16.80;;;12.30;;
946;SDS011;460;48.734;9.152;2023-05-23T05:57:38;18.73;;;12.47;;
946;SDS011;460;48.734;9.152;2023-05-23T06:00:06;16.17;;;10.40;;
946;SDS011;460;48.734;9.152;2023-05-23T06:02:37;18.83;;;12.33;;
946;SDS011;460;48.734;9.152;2023-05-23T06:05:06;16.43;;;11.97;;
946;SDS011;460;48.734;9.152;2023-05-23T06:07:36;20.50;;;11.53;;
946;SDS011;460;48.734;9.152;2023-05-23T06:10:03;14.97;;;12.13;;
946;SDS011;460;48.734;9.152;2023-05-23T06:12:31;16.07;;;10.60;;
946;SDS011;460;48.734;9.152;2023-05-23T06:14:57;18.70;;;12.17;;
946;SDS011;460;48.734;9.152;2023-05-23T06:17:24;17.53;;;12.00;;
946;SDS011;460;48.734;9.152;2023-05-23T06:19:51;20.13;;;12.07;;
946;SDS011;460;48.734;9.152;2023-05-23T06:22:19;12.17;;;10.63;;
946;SDS011;460;48.734;9.152;2023-05-23T06:24:46;17.87;;;11.17;;
946;SDS011;460;48.734;9.152;2023-05-23T06:27:13;17.00;;;11.87;;
946;SDS011;460;48.734;9.152;2023-05-23T06:29:39;18.93;;;10.87;;
946;SDS011;460;48.734;9.152;2023-05-23T06:32:06;16.67;;;11.47;;
946;SDS011;460;48.734;9.152;2023-05-23T06:34:33;16.23;;;11.00;;
946;SDS011;460;48.734;9.152;2023-05-23T06:37:00;16.60;;;13.63;;
946;SDS011;460;48.734;9.152;2023-05-23T06:39:28;19.70;;;12.20;;
946;SDS011;460;48.734;9.152;2023-05-23T06:41:55;17.70;;;13.20;;
946;SDS011;460;48.734;9.152;2023-05-23T06:44:22;15.90;;;10.60;;
946;SDS011;460;48.734;9.152;2023-05-23T06:46:48;17.17;;;11.50;;
946;SDS011;460;48.734;9.152;2023-05-23T06:49:15;12.60;;;10.90;;
946;SDS011;460;48.734;9.152;2023-05-23T06:51:42;22.80;;;12.10;;
946;SDS011;460;48.734;9.152;2023-05-23T06:54:09;14.40;;;11.20;;
946;SDS011;460;48.734;9.152;2023-05-23T06:56:37;13.13;;;9.80;;
946;SDS011;460;48.734;9.152;2023-05-23T06:59:03;15.50;;;11.07;;
946;SDS011;460;48.734;9.152;2023-05-23T07:01:30;17.47;;;11.00;;
946;SDS011;460;48.734;9.152;2023-05-23T07:03:57;14.40;;;10.00;;
946;SDS011;460;48.734;9.152;2023-05-23T07:06:24;16.60;;;12.27;;
946;SDS011;460;48.734;9.152;2023-05-23T07:08:52;16.30;;;10.67;;
946;SDS011;460;48.734;9.152;2023-05-23T07:11:19;16.47;;;11.53;;
946;SDS011;460;48.734;9.152;2023-05-23T07:13:48;14.17;;;10.50;;
946;SDS011;460;48.734;9.152;2023-05-23T07:16:14;13.07;;;10.20;;
946;SDS011;460;48.734;9.152;2023-05-23T07:18:41;12.50;;;10.67;;
946;SDS011;460;48.734;9.152;2023-05-23T07:21:08;15.27;;;10.40;;
946;SDS011;460;48.734;9.152;2023-05-23T07:23:35;19.63;;;10.07;;
946;SDS011;460;48.734;9.152;2023-05-23T07:26:01;14.40;;;10.27;;
946;SDS011;460;48.734;9.152;2023-05-23T07:28:29;19.47;;;11.03;;
946;SDS011;460;48.734;9.152;2023-05-23T07:30:57;16.77;;;10.30;;
946;SDS011;460;48.734;9.152;2023-05-23T07:33:23;15.40;;;10.30;;
946;SDS011;460;48.734;9.152;2023-05-23T07:35:50;16.67;;;10.00;;
946;SDS011;460;48.734;9.152;2023-05-23T07:38:17;13.63;;;10.43;;
946;SDS011;460;48.734;9.152;2023-05-23T07:40:44;15.40;;;10.03;;
946;SDS011;460;48.734;9.152;2023-05-23T07:43:11;13.57;;;8.80;;
946;SDS011;460;48.734;9.152;2023-05-23T07:45:37;13.13;;;9.67;;
946;SDS011;460;48.734;9.152;2023-05-23T07:48:05;13.30;;;9.87;;
946;SDS011;460;48.734;9.152;2023-05-23T07:50:33;16.83;;;11.80;;
946;SDS011;460;48.734;9.152;2023-05-23T07:53:00;14.37;;;9.17;;
946;SDS011;460;48.734;9.152;2023-05-23T07:55:27;15.37;;;11.60;;
946;SDS011;460;48.734;9.152;2023-05-23T07:57:54;15.67;;;11.07;;
946;SDS011;460;48.734;9.152;2023-05-23T08:00:21;21.20;;;10.90;;
946;SDS011;460;48.734;9.152;2023-05-23T08:02:48;14.80;;;10.93;;
946;SDS011;460;48.734;9.152;2023-05-23T08:05:16;15.47;;;9.87;;
946;SDS011;460;48.734;9.152;2023-05-23T08:07:43;13.23;;;9.60;;
946;SDS011;460;48.734;9.152;2023-05-23T08:10:10;13.70;;;9.27;;
946;SDS011;460;48.734;9.152;2023-05-23T08:12:37;14.10;;;9.60;;
946;SDS011;460;48.734;9.152;2023-05-23T08:15:04;14.30;;;10.20;;
946;SDS011;460;48.734;9.152;2023-05-23T08:17:32;18.93;;;10.10;;
946;SDS011;460;48.734;9.152;2023-05-23T08:19:58;15.80;;;9.17;;
946;SDS011;460;48.734;9.152;2023-05-23T08:22:27;10.30;;;9.23;;
946;SDS011;460;48.734;9.152;2023-05-23T08:24:54;10.70;;;9.30;;
946;SDS011;460;48.734;9.152;2023-05-23T08:27:21;14.70;;;9.50;;
946;SDS011;460;48.734;9.152;2023-05-23T08:29:48;13.90;;;9.00;;
946;SDS011;460;48.734;9.152;2023-05-23T08:32:14;10.83;;;8.30;;
946;SDS011;460;48.734;9.152;2023-05-23T08:34:41;11.50;;;8.17;;
946;SDS011;460;48.734;9.152;2023-05-23T08:37:08;17.00;;;8.43;;
946;SDS011;460;48.734;9.152;2023-05-23T08:39:36;12.13;;;8.83;;
946;SDS011;460;48.734;9.152;2023-05-23T08:42:03;15.03;;;9.43;;
946;SDS011;460;48.734;9.152;2023-05-23T08:44:30;11.07;;;8.50;;
946;SDS011;460;48.734;9.152;2023-05-23T08:46:57;13.23;;;8.30;;
946;SDS011;460;48.734;9.152;2023-05-23T08:49:29;11.27;;;8.00;;
946;SDS011;460;48.734;9.152;2023-05-23T08:51:57;13.67;;;8.43;;
946;SDS011;460;48.734;9.152;2023-05-23T08:54:28;8.80;;;7.50;;
946;SDS011;460;48.734;9.152;2023-05-23T08:56:56;11.50;;;7.33;;
946;SDS011;460;48.734;9.152;2023-05-23T08:59:23;11.20;;;7.80;;
946;SDS011;460;48.734;9.152;2023-05-23T09:01:52;13.03;;;8.30;;
946;SDS011;460;48.734;9.152;2023-05-23T09:04:21;11.70;;;8.13;;
946;SDS011;460;48.734;9.152;2023-05-23T09:06:48;9.27;;;7.43;;
946;SDS011;460;48.734;9.152;2023-05-23T09:09:16;10.27;;;7.70;;
946;SDS011;460;48.734;9.152;2023-05-23T09:11:43;9.60;;;6.50;;
946;SDS011;460;48.734;9.152;2023-05-23T09:14:12;10.00;;;6.93;;
946;SDS011;460;48.734;9.152;2023-05-23T09:16:42;9.53;;;6.43;;
946;SDS011;460;48.734;9.152;2023-05-23T09:19:12;11.07;;;7.30;;
946;SDS011;460;48.734;9.152;2023-05-23T09:21:41;12.80;;;7.80;;
946;SDS011;460;48.734;9.152;2023-05-23T09:24:09;9.53;;;7.17;;
946;SDS011;460;48.734;9.152;2023-05-23T09:26:36;8.33;;;6.80;;
946;SDS011;460;48.734;9.152;2023-05-23T09:29:03;11.40;;;7.33;;
946;SDS011;460;48.734;9.152;2023-05-23T09:31:32;10.87;;;6.23;;
946;SDS011;460;48.734;9.152;2023-05-23T09:33:59;8.20;;;5.87;;
946;SDS011;460;48.734;9.152;2023-05-23T09:36:26;9.03;;;5.73;;
946;SDS011;460;48.734;9.152;2023-05-23T09:38:54;10.43;;;7.47;;
946;SDS011;460;48.734;9.152;2023-05-23T09:41:21;8.17;;;6.07;;
946;SDS011;460;48.734;9.152;2023-05-23T09:43:49;7.90;;;5.40;;
946;SDS011;460;48.734;9.152;2023-05-23T09:46:17;8.83;;;5.73;;
946;SDS011;460;48.734;9.152;2023-05-23T09:48:46;8.67;;;5.20;;
946;SDS011;460;48.734;9.152;2023-05-23T09:51:16;6.17;;;5.10;;
946;SDS011;460;48.734;9.152;2023-05-23T09:53:45;6.80;;;5.33;;
946;SDS011;460;48.734;9.152;2023-05-23T09:56:12;7.10;;;5.53;;
946;SDS011;460;48.734;9.152;2023-05-23T09:58:41;5.97;;;5.37;;
946;SDS011;460;48.734;9.152;2023-05-23T10:01:10;6.70;;;5.40;;
946;SDS011;460;48.734;9.152;2023-05-23T10:03:38;6.53;;;4.70;;
946;SDS011;460;48.734;9.152;2023-05-23T10:06:12;4.10;;;3.70;;
946;SDS011;460;48.734;9.152;2023-05-23T10:08:44;6.93;;;4.93;;
946;SDS011;460;48.734;9.152;2023-05-23T10:11:34;6.67;;;4.70;;
946;SDS011;460;48.734;9.152;2023-05-23T10:14:39;7.40;;;4.53;;
946;SDS011;460;48.734;9.152;2023-05-23T10:17:11;7.10;;;4.00;;
946;SDS011;460;48.734;9.152;2023-05-23T10:19:45;7.70;;;5.30;;
946;SDS011;460;48.734;9.152;2023-05-23T10:22:17;6.20;;;4.53;;
946;SDS011;460;48.734;9.152;2023-05-23T10:24:45;7.60;;;5.10;;
946;SDS011;460;48.734;9.152;2023-05-23T10:27:13;5.23;;;3.83;;
946;SDS011;460;48.734;9.152;2023-05-23T10:29:41;9.57;;;4.60;;
946;SDS011;460;48.734;9.152;2023-05-23T10:32:18;5.87;;;4.83;;
946;SDS011;460;48.734;9.152;2023-05-23T10:34:47;5.03;;;3.97;;
946;SDS011;460;48.734;9.152;2023-05-23T10:37:23;6.43;;;5.37;;
946;SDS011;460;48.734;9.152;2023-05-23T10:39:58;6.43;;;4.43;;
946;SDS011;460;48.734;9.152;2023-05-23T10:42:32;5.83;;;3.47;;
946;SDS011;460;48.734;9.152;2023-05-23T10:45:14;5.10;;;4.20;;
946;SDS011;460;48.734;9.152;2023-05-23T10:47:46;7.60;;;5.37;;
946;SDS011;460;48.734;9.152;2023-05-23T10:50:14;4.43;;;3.50;;
946;SDS011;460;48.734;9.152;2023-05-23T10:52:55;5.20;;;4.47;;
946;SDS011;460;48.734;9.152;2023-05-23T10:55:22;5.03;;;4.27;;
946;SDS011;460;48.734;9.152;2023-05-23T11:00:34;4.80;;;3.90;;
946;SDS011;460;48.734;9.152;2023-05-23T11:03:03;4.23;;;3.70;;
946;SDS011;460;48.734;9.152;2023-05-23T11:05:33;4.70;;;3.60;;
946;SDS011;460;48.734;9.152;2023-05-23T11:08:06;5.60;;;5.00;;
946;SDS011;460;48.734;9.152;2023-05-23T11:13:23;5.10;;;4.17;;
946;SDS011;460;48.734;9.152;2023-05-23T11:15:50;5.40;;;3.67;;
946;SDS011;460;48.734;9.152;2023-05-23T11:18:22;5.87;;;4.10;;
946;SDS011;460;48.734;9.152;2023-05-23T11:20:52;5.17;;;3.60;;
946;SDS011;460;48.734;9.152;2023-05-23T11:23:20;6.50;;;4.47;;
946;SDS011;460;48.734;9.152;2023-05-23T11:25:48;6.70;;;5.23;;
946;SDS011;460;48.734;9.152;2023-05-23T11:28:16;5.77;;;4.13;;
946;SDS011;460;48.734;9.152;2023-05-23T11:30:43;4.50;;;4.07;;
946;SDS011;460;48.734;9.152;2023-05-23T11:33:13;5.33;;;4.77;;
946;SDS011;460;48.734;9.152;2023-05-23T11:35:44;4.60;;;4.23;;
946;SDS011;460;48.734;9.152;2023-05-23T11:38:12;5.30;;;4.10;;
946;SDS011;460;48.734;9.152;2023-05-23T11:40:41;5.70;;;3.70;;
946;SDS011;460;48.734;9.152;2023-05-23T11:43:09;4.00;;;3.20;;
946;SDS011;460;48.734;9.152;2023-05-23T11:45:39;4.90;;;4.40;;
946;SDS011;460;48.734;9.152;2023-05-23T11:48:07;7.00;;;4.23;;
946;SDS011;460;48.734;9.152;2023-05-23T11:50:46;4.23;;;3.80;;
946;SDS011;460;48.734;9.152;2023-05-23T11:53:14;5.53;;;4.33;;
946;SDS011;460;48.734;9.152;2023-05-23T11:55:47;4.90;;;4.40;;
946;SDS011;460;48.734;9.152;2023-05-23T11:58:17;5.13;;;4.50;;
946;SDS011;460;48.734;9.152;2023-05-23T12:00:44;8.03;;;5.57;;
946;SDS011;460;48.734;9.152;2023-05-23T12:03:11;5.17;;;4.67;;
946;SDS011;460;48.734;9.152;2023-05-23T12:05:38;5.93;;;5.33;;
946;SDS011;460;48.734;9.152;2023-05-23T12:08:09;5.20;;;4.63;;
946;SDS011;460;48.734;9.152;2023-05-23T12:10:37;5.83;;;5.13;;
946;SDS011;460;48.734;9.152;2023-05-23T12:13:14;4.47;;;4.07;;
946;SDS011;460;48.734;9.152;2023-05-23T12:15:41;5.23;;;4.77;;
946;SDS011;460;48.734;9.152;2023-05-23T12:18:08;5.63;;;4.30;;
946;SDS011;460;48.734;9.152;2023-05-23T12:20:35;5.13;;;4.33;;
946;SDS011;460;48.734;9.152;2023-05-23T12:23:02;4.90;;;4.37;;
946;SDS011;460;48.734;9.152;2023-05-23T12:25:38;4.93;;;3.80;;
946;SDS011;460;48.734;9.152;2023-05-23T12:28:06;4.83;;;4.33;;
946;SDS011;460;48.734;9.152;2023-05-23T12:30:39;6.20;;;5.00;;
946;SDS011;460;48.734;9.152;2023-05-23T12:33:07;4.50;;;3.90;;
946;SDS011;460;48.734;9.152;2023-05-23T12:35:34;6.30;;;4.03;;
946;SDS011;460;48.734;9.152;2023-05-23T12:38:01;4.50;;;4.10;;
946;SDS011;460;48.734;9.152;2023-05-23T12:40:31;4.63;;;4.10;;
946;SDS011;460;48.734;9.152;2023-05-23T12:42:59;5.57;;;3.40;;
946;SDS011;460;48.734;9.152;2023-05-23T12:45:30;4.47;;;3.63;;
946;SDS011;460;48.734;9.152;2023-05-23T12:47:58;3.60;;;3.30;;
946;SDS011;460;48.734;9.152;2023-05-23T12:50:24;4.23;;;3.93;;
946;SDS011;460;48.734;9.152;2023-05-23T12:52:51;4.80;;;3.50;;
946;SDS011;460;48.734;9.152;2023-05-23T12:55:18;3.90;;;3.50;;
946;SDS011;460;48.734;9.152;2023-05-23T12:57:45;4.23;;;3.30;;
946;SDS011;460;48.734;9.152;2023-05-23T13:00:14;3.33;;;3.03;;
946;SDS011;460;48.734;9.152;2023-05-23T13:02:41;3.67;;;3.37;;
946;SDS011;460;48.734;9.152;2023-05-23T13:05:08;3.00;;;2.80;;
946;SDS011;460;48.734;9.152;2023-05-23T13:07:35;3.97;;;3.47;;
946;SDS011;460;48.734;9.152;2023-05-23T13:10:03;3.87;;;3.57;;
946;SDS011;460;48.734;9.152;2023-05-23T13:12:30;3.60;;;2.90;;
946;SDS011;460;48.734;9.152;2023-05-23T13:14:58;5.00;;;3.50;;
946;SDS011;460;48.734;9.152;2023-05-23T13:17:26;3.70;;;3.40;;
946;SDS011;460;48.734;9.152;2023-05-23T13:19:53;3.80;;;3.23;;
946;SDS011;460;48.734;9.152;2023-05-23T13:22:20;2.60;;;2.40;;
946;SDS011;460;48.734;9.152;2023-05-23T13:24:47;3.40;;;2.90;;
946;SDS011;460;48.734;9.152;2023-05-23T13:27:14;3.40;;;3.10;;
946;SDS011;460;48.734;9.152;2023-05-23T13:29:41;3.47;;;3.17;;
946;SDS011;460;48.734;9.152;2023-05-23T13:32:07;3.27;;;3.00;;
946;SDS011;460;48.734;9.152;2023-05-23T13:34:36;2.60;;;2.43;;
946;SDS011;460;48.734;9.152;2023-05-23T13:37:03;3.30;;;2.60;;
946;SDS011;460;48.734;9.152;2023-05-23T13:39:30;2.70;;;2.50;;
946;SDS011;460;48.734;9.152;2023-05-23T13:41:57;2.90;;;2.63;;
946;SDS011;460;48.734;9.152;2023-05-23T13:44:24;3.37;;;3.07;;
946;SDS011;460;48.734;9.152;2023-05-23T13:46:51;3.13;;;2.93;;
946;SDS011;460;48.734;9.152;2023-05-23T13:49:17;3.07;;;2.43;;
946;SDS011;460;48.734;9.152;2023-05-23T13:51:45;3.27;;;2.83;;
946;SDS011;460;48.734;9.152;2023-05-23T13:54:13;4.70;;;3.07;;
946;SDS011;460;48.734;9.152;2023-05-23T13:56:40;3.40;;;3.10;;
946;SDS011;460;48.734;9.152;2023-05-23T13:59:07;2.80;;;2.67;;
946;SDS011;460;48.734;9.152;2023-05-23T14:01:34;2.90;;;2.60;;
946;SDS011;460;48.734;9.152;2023-05-23T14:04:01;2.80;;;2.57;;
946;SDS011;460;48.734;9.152;2023-05-23T14:06:28;2.50;;;2.30;;
946;SDS011;460;48.734;9.152;2023-05-23T14:08:58;3.20;;;2.87;;
946;SDS011;460;48.734;9.152;2023-05-23T14:11:25;2.70;;;2.50;;
946;SDS011;460;48.734;9.152;2023-05-23T14:13:52;2.83;;;2.50;;
946;SDS011;460;48.734;9.152;2023-05-23T14:16:19;2.60;;;2.30;;
946;SDS011;460;48.734;9.152;2023-05-23T14:18:46;2.40;;;2.13;;
946;SDS011;460;48.734;9.152;2023-05-23T14:21:12;2.80;;;2.60;;
946;SDS011;460;48.734;9.152;2023-05-23T14:23:39;3.07;;;2.63;;
946;SDS011;460;48.734;9.152;2023-05-23T14:26:07;3.07;;;2.30;;
946;SDS011;460;48.734;9.152;2023-05-23T14:28:35;2.67;;;2.10;;
946;SDS011;460;48.734;9.152;2023-05-23T14:31:01;3.20;;;2.90;;
946;SDS011;460;48.734;9.152;2023-05-23T14:33:28;2.30;;;2.10;;
946;SDS011;460;48.734;9.152;2023-05-23T14:35:55;3.87;;;3.00;;
946;SDS011;460;48.734;9.152;2023-05-23T14:38:22;2.30;;;2.10;;
946;SDS011;460;48.734;9.152;2023-05-23T14:40:49;2.33;;;2.13;;
946;SDS011;460;48.734;9.152;2023-05-23T14:43:17;2.73;;;2.43;;
946;SDS011;460;48.734;9.152;2023-05-23T14:45:44;3.40;;;2.87;;
946;SDS011;460;48.734;9.152;2023-05-23T14:48:10;2.43;;;2.13;;
946;SDS011;460;48.734;9.152;2023-05-23T14:50:37;2.00;;;1.90;;
946;SDS011;460;48.734;9.152;2023-05-23T14:53:04;3.10;;;2.80;;
946;SDS011;460;48.734;9.152;2023-05-23T14:55:31;2.60;;;2.30;;
946;SDS011;460;48.734;9.152;2023-05-23T14:57:58;2.90;;;2.30;;
946;SDS011;460;48.734;9.152;2023-05-23T15:00:26;2.40;;;2.20;;
946;SDS011;460;48.734;9.152;2023-05-23T15:02:53;3.20;;;3.00;;
946;SDS011;460;48.734;9.152;2023-05-23T15:05:20;2.97;;;2.67;;
946;SDS011;460;48.734;9.152;2023-05-23T15:07:47;2.67;;;2.47;;
946;SDS011;460;48.734;9.152;2023-05-23T15:10:13;2.90;;;2.67;;
946;SDS011;460;48.734;9.152;2023-05-23T15:12:41;3.20;;;2.90;;
946;SDS011;460;48.734;9.152;2023-05-23T15:15:08;3.43;;;2.63;;
946;SDS011;460;48.734;9.152;2023-05-23T15:17:37;3.57;;;3.27;;
946;SDS011;460;48.734;9.152;2023-05-23T15:20:04;2.57;;;2.37;;
946;SDS011;460;48.734;9.152;2023-05-23T15:22:32;2.50;;;2.30;;
946;SDS011;460;48.734;9.152;2023-05-23T15:25:01;2.87;;;2.53;;
946;SDS011;460;48.734;9.152;2023-05-23T15:27:28;3.87;;;3.10;;
946;SDS011;460;48.734;9.152;2023-05-23T15:29:55;3.70;;;3.10;;
946;SDS011;460;48.734;9.152;2023-05-23T15:32:22;3.27;;;2.50;;
946;SDS011;460;48.734;9.152;2023-05-23T15:34:50;3.37;;;2.47;;
946;SDS011;460;48.734;9.152;2023-05-23T15:37:17;2.80;;;2.60;;
946;SDS011;460;48.734;9.152;2023-05-23T15:39:44;3.43;;;2.63;;
946;SDS011;460;48.734;9.152;2023-05-23T15:42:11;2.70;;;2.17;;
946;SDS011;460;48.734;9.152;2023-05-23T15:44:37;2.70;;;2.50;;